sensor_id;sensor_type;location;lat;lon;timestamp;pressure;altitude;pressure_sealevel;temperature;humidity
13553;BME280;6847;48.830;9.116;2023-03-18T08:06:45;97620.59;;;34.13;34.48
13553;BME280;6847;48.830;9.116;2023-03-18T08:09:46;97626.91;;;34.34;33.95
13553;BME280;6847;48.830;9.116;2023-03-18T08:12:34;97638.25;;;34.46;33.72
13553;BME280;6847;48.830;9.116;2023-03-18T08:15:25;97635.16;;;34.41;33.60
13553;BME280;6847;48.830;9.116;2023-03-18T08:18:24;97640.19;;;34.33;33.31
13553;BME280;6847;48.830;9.116;2023-03-18T08:21:10;97640.91;;;34.66;32.91
13553;BME280;6847;48.830;9.116;2023-03-18T08:24:36;97649.88;;;35.19;31.67
13553;BME280;6847;48.830;9.116;2023-03-18T08:27:51;97619.19;;;35.37;31.80
13553;BME280;6847;48.830;9.116;2023-03-18T08:30:38;97649.59;;;35.68;31.43
13553;BME280;6847;48.830;9.116;2023-03-18T08:33:31;97629.91;;;35.93;30.82
13553;BME280;6847;48.830;9.116;2023-03-18T08:36:16;97653.56;;;36.08;30.52
13553;BME280;6847;48.830;9.116;2023-03-18T08:39:21;97648.38;;;35.69;30.75
13553;BME280;6847;48.830;9.116;2023-03-18T08:42:11;97647.91;;;35.57;30.79
13553;BME280;6847;48.830;9.116;2023-03-18T08:45:15;97648.59;;;35.61;30.69
13553;BME280;6847;48.830;9.116;2023-03-18T08:48:11;97645.81;;;35.20;30.34
13553;BME280;6847;48.830;9.116;2023-03-18T08:51:02;97640.94;;;35.08;30.54
13553;BME280;6847;48.830;9.116;2023-03-18T08:54:10;97633.50;;;35.55;29.67
13553;BME280;6847;48.830;9.116;2023-03-18T08:57:00;97639.53;;;36.43;28.88
13553;BME280;6847;48.830;9.116;2023-03-18T08:59:57;97635.38;;;37.34;27.63
13553;BME280;6847;48.830;9.116;2023-03-18T09:02:43;97640.19;;;37.77;27.68
13553;BME280;6847;48.830;9.116;2023-03-18T09:05:36;97646.09;;;38.10;26.92
13553;BME280;6847;48.830;9.116;2023-03-18T09:08:33;97636.59;;;38.35;27.35
13553;BME280;6847;48.830;9.116;2023-03-18T09:11:44;97641.91;;;38.33;27.19
13553;BME280;6847;48.830;9.116;2023-03-18T09:14:46;97604.50;;;38.20;26.75
13553;BME280;6847;48.830;9.116;2023-03-18T09:18:10;97625.78;;;38.52;26.38
13553;BME280;6847;48.830;9.116;2023-03-18T09:21:04;97624.06;;;38.55;26.02
13553;BME280;6847;48.830;9.116;2023-03-18T09:23:50;97641.97;;;38.52;26.27
13553;BME280;6847;48.830;9.116;2023-03-18T09:26:39;97618.06;;;38.62;25.84
13553;BME280;6847;48.830;9.116;2023-03-18T09:29:51;97626.28;;;38.96;25.60
13553;BME280;6847;48.830;9.116;2023-03-18T09:32:41;97618.69;;;38.84;26.06
13553;BME280;6847;48.830;9.116;2023-03-18T09:36:01;97622.34;;;38.57;25.54
13553;BME280;6847;48.830;9.116;2023-03-18T09:39:07;97621.84;;;38.86;25.33
13553;BME280;6847;48.830;9.116;2023-03-18T09:42:27;97620.22;;;39.21;25.17
13553;BME280;6847;48.830;9.116;2023-03-18T09:45:21;97620.78;;;39.53;24.85
13553;BME280;6847;48.830;9.116;2023-03-18T09:48:48;97626.50;;;39.86;24.60
13553;BME280;6847;48.830;9.116;2023-03-18T09:51:51;97616.75;;;40.11;24.56
13553;BME280;6847;48.830;9.116;2023-03-18T09:54:40;97609.59;;;40.24;24.37
13553;BME280;6847;48.830;9.116;2023-03-18T09:57:45;97619.25;;;40.42;24.49
13553;BME280;6847;48.830;9.116;2023-03-18T10:00:34;97605.16;;;40.47;24.19
13553;BME280;6847;48.830;9.116;2023-03-18T10:03:26;97611.22;;;40.40;24.49
13553;BME280;6847;48.830;9.116;2023-03-18T10:06:17;97615.69;;;40.32;24.26
13553;BME280;6847;48.830;9.116;2023-03-18T10:09:15;97604.56;;;39.96;24.29
13553;BME280;6847;48.830;9.116;2023-03-18T10:12:15;97597.22;;;39.80;24.57
13553;BME280;6847;48.830;9.116;2023-03-18T10:15:12;97601.72;;;39.96;24.36
13553;BME280;6847;48.830;9.116;2023-03-18T10:18:07;97569.03;;;39.85;24.24
13553;BME280;6847;48.830;9.116;2023-03-18T10:24:18;97585.06;;;39.88;24.05
13553;BME280;6847;48.830;9.116;2023-03-18T10:27:17;97600.81;;;39.89;24.10
13553;BME280;6847;48.830;9.116;2023-03-18T10:30:30;97583.50;;;39.78;24.05
13553;BME280;6847;48.830;9.116;2023-03-18T10:33:34;97596.28;;;39.32;23.90
13553;BME280;6847;48.830;9.116;2023-03-18T10:36:27;97592.28;;;39.05;24.65
13553;BME280;6847;48.830;9.116;2023-03-18T10:39:28;97592.31;;;38.96;24.36
13553;BME280;6847;48.830;9.116;2023-03-18T10:42:24;97591.03;;;38.88;23.98
13553;BME280;6847;48.830;9.116;2023-03-18T10:45:23;97596.38;;;38.86;24.23
13553;BME280;6847;48.830;9.116;2023-03-18T10:48:38;97591.72;;;37.97;24.15
13553;BME280;6847;48.830;9.116;2023-03-18T10:59:38;97566.06;;;36.46;25.18
13553;BME280;6847;48.830;9.116;2023-03-18T11:03:18;97565.84;;;36.97;24.58
13553;BME280;6847;48.830;9.116;2023-03-18T11:10:50;97561.53;;;37.45;23.76
13553;BME280;6847;48.830;9.116;2023-03-18T11:30:51;97549.56;;;37.01;23.99
13553;BME280;6847;48.830;9.116;2023-03-18T11:33:44;97535.53;;;36.88;23.77
13553;BME280;6847;48.830;9.116;2023-03-18T11:37:09;97545.16;;;37.00;23.81
13553;BME280;6847;48.830;9.116;2023-03-18T11:40:24;97511.75;;;36.98;23.50
13553;BME280;6847;48.830;9.116;2023-03-18T12:06:12;97503.25;;;34.34;25.26
13553;BME280;6847;48.830;9.116;2023-03-18T12:09:20;97502.66;;;33.81;24.58
13553;BME280;6847;48.830;9.116;2023-03-18T12:12:24;97512.66;;;32.97;25.62
13553;BME280;6847;48.830;9.116;2023-03-18T12:15:26;97475.31;;;32.45;26.09
13553;BME280;6847;48.830;9.116;2023-03-18T12:18:33;97510.91;;;32.28;26.19
13553;BME280;6847;48.830;9.116;2023-03-18T12:22:03;97496.31;;;31.47;26.71
13553;BME280;6847;48.830;9.116;2023-03-18T12:25:45;97485.25;;;30.25;27.85
13553;BME280;6847;48.830;9.116;2023-03-18T12:29:58;97482.09;;;29.78;27.67
13553;BME280;6847;48.830;9.116;2023-03-18T12:33:50;97461.84;;;29.74;27.47
13553;BME280;6847;48.830;9.116;2023-03-18T12:40:50;97459.31;;;28.94;28.17
13553;BME280;6847;48.830;9.116;2023-03-18T12:44:22;97467.19;;;29.06;27.73
13553;BME280;6847;48.830;9.116;2023-03-18T12:47:48;97456.63;;;29.28;27.86
13553;BME280;6847;48.830;9.116;2023-03-18T12:51:21;97454.81;;;29.59;27.74
13553;BME280;6847;48.830;9.116;2023-03-18T12:55:14;97461.56;;;30.03;27.15
13553;BME280;6847;48.830;9.116;2023-03-18T13:21:24;97439.00;;;31.08;26.80
13553;BME280;6847;48.830;9.116;2023-03-18T13:24:59;97442.22;;;30.80;26.89
13553;BME280;6847;48.830;9.116;2023-03-18T13:28:54;97443.59;;;31.22;26.41
13553;BME280;6847;48.830;9.116;2023-03-18T13:31:56;97446.78;;;31.44;26.19
13553;BME280;6847;48.830;9.116;2023-03-18T13:35:18;97405.16;;;31.26;26.15
13553;BME280;6847;48.830;9.116;2023-03-18T13:38:32;97436.72;;;31.26;25.98
13553;BME280;6847;48.830;9.116;2023-03-18T13:42:20;97434.75;;;31.47;25.79
13553;BME280;6847;48.830;9.116;2023-03-18T13:45:32;97446.44;;;31.65;25.96
13553;BME280;6847;48.830;9.116;2023-03-18T13:48:41;97433.81;;;31.34;26.17
13553;BME280;6847;48.830;9.116;2023-03-18T13:52:29;97434.66;;;30.46;26.71
13553;BME280;6847;48.830;9.116;2023-03-18T13:59:46;97419.13;;;29.40;27.00
13553;BME280;6847;48.830;9.116;2023-03-18T14:06:22;97428.00;;;29.28;26.56
13553;BME280;6847;48.830;9.116;2023-03-18T14:10:06;97422.53;;;29.14;26.42
13553;BME280;6847;48.830;9.116;2023-03-18T14:13:26;97422.13;;;28.53;26.80
13553;BME280;6847;48.830;9.116;2023-03-18T14:39:38;97401.50;;;25.73;26.91
13553;BME280;6847;48.830;9.116;2023-03-18T14:42:41;97393.41;;;25.51;26.97
13553;BME280;6847;48.830;9.116;2023-03-18T14:46:13;97399.66;;;25.33;26.73
13553;BME280;6847;48.830;9.116;2023-03-18T14:49:54;97390.19;;;25.41;26.81
13553;BME280;6847;48.830;9.116;2023-03-18T14:53:11;97386.41;;;25.64;26.38
13553;BME280;6847;48.830;9.116;2023-03-18T15:10:50;97398.28;;;25.68;27.26
13553;BME280;6847;48.830;9.116;2023-03-18T15:14:39;97373.19;;;25.47;27.54
13553;BME280;6847;48.830;9.116;2023-03-18T15:18:01;97390.88;;;25.24;28.31
13553;BME280;6847;48.830;9.116;2023-03-18T15:21:07;97404.13;;;24.94;28.61
13553;BME280;6847;48.830;9.116;2023-03-18T15:24:28;97411.72;;;24.63;28.93
13553;BME280;6847;48.830;9.116;2023-03-18T15:27:19;97407.56;;;24.43;28.86
13553;BME280;6847;48.830;9.116;2023-03-18T15:30:34;97392.38;;;24.26;29.23
13553;BME280;6847;48.830;9.116;2023-03-18T15:34:12;97394.78;;;24.28;29.37
13553;BME280;6847;48.830;9.116;2023-03-18T15:38:08;97401.97;;;24.36;29.45
13553;BME280;6847;48.830;9.116;2023-03-18T15:41:52;97397.25;;;24.40;29.65
13553;BME280;6847;48.830;9.116;2023-03-18T15:49:16;97390.41;;;24.67;29.86
13553;BME280;6847;48.830;9.116;2023-03-18T15:52:39;97389.75;;;24.85;29.83
13553;BME280;6847;48.830;9.116;2023-03-18T15:55:49;97386.16;;;24.77;30.37
13553;BME280;6847;48.830;9.116;2023-03-18T15:59:18;97389.66;;;24.74;30.33
13553;BME280;6847;48.830;9.116;2023-03-18T16:02:31;97391.88;;;24.54;30.70
13553;BME280;6847;48.830;9.116;2023-03-18T18:51:44;97509.94;;;17.11;38.03
13553;BME280;6847;48.830;9.116;2023-03-18T18:54:32;97510.91;;;17.06;37.86
13553;BME280;6847;48.830;9.116;2023-03-18T18:57:23;97454.94;;;16.65;38.17
13553;BME280;6847;48.830;9.116;2023-03-18T19:00:14;97508.69;;;16.99;38.19
13553;BME280;6847;48.830;9.116;2023-03-18T19:03:02;97507.41;;;16.97;38.28
13553;BME280;6847;48.830;9.116;2023-03-18T19:05:51;97508.06;;;16.94;38.09
13553;BME280;6847;48.830;9.116;2023-03-18T19:08:39;97480.47;;;16.78;38.09
13553;BME280;6847;48.830;9.116;2023-03-18T19:11:27;97506.97;;;16.86;38.16
13553;BME280;6847;48.830;9.116;2023-03-18T19:14:21;97412.78;;;16.20;38.74
13553;BME280;6847;48.830;9.116;2023-03-18T19:17:14;97505.38;;;16.77;38.54
13553;BME280;6847;48.830;9.116;2023-03-18T19:20:00;97504.13;;;16.74;38.75
13553;BME280;6847;48.830;9.116;2023-03-18T19:22:48;97497.06;;;16.64;38.89
13553;BME280;6847;48.830;9.116;2023-03-18T19:25:35;97506.53;;;16.67;38.85
13553;BME280;6847;48.830;9.116;2023-03-18T19:28:22;97507.53;;;16.62;39.17
13553;BME280;6847;48.830;9.116;2023-03-18T19:31:25;97393.25;;;15.83;38.95
13553;BME280;6847;48.830;9.116;2023-03-18T19:34:17;97513.31;;;16.52;39.06
13553;BME280;6847;48.830;9.116;2023-03-18T19:37:03;97529.06;;;16.47;39.08
13553;BME280;6847;48.830;9.116;2023-03-18T19:39:52;97516.38;;;16.42;39.36
13553;BME280;6847;48.830;9.116;2023-03-18T19:42:44;97526.81;;;16.40;39.50
13553;BME280;6847;48.830;9.116;2023-03-18T19:45:29;97529.88;;;16.39;39.58
13553;BME280;6847;48.830;9.116;2023-03-18T19:48:18;97488.63;;;16.06;39.62
13553;BME280;6847;48.830;9.116;2023-03-18T19:51:10;97529.41;;;16.28;39.75
13553;BME280;6847;48.830;9.116;2023-03-18T19:54:25;97528.59;;;16.27;39.61
13553;BME280;6847;48.830;9.116;2023-03-18T19:57:15;97529.41;;;16.28;39.75
13553;BME280;6847;48.830;9.116;2023-03-18T20:00:18;97528.13;;;16.34;39.75
13553;BME280;6847;48.830;9.116;2023-03-18T20:03:11;97535.19;;;16.35;39.81
13553;BME280;6847;48.830;9.116;2023-03-18T20:05:58;97502.09;;;16.11;39.85
13553;BME280;6847;48.830;9.116;2023-03-18T20:08:44;97539.22;;;16.29;40.16
13553;BME280;6847;48.830;9.116;2023-03-18T20:11:31;97536.81;;;16.19;40.20
13553;BME280;6847;48.830;9.116;2023-03-18T20:14:20;97548.22;;;16.12;40.30
13553;BME280;6847;48.830;9.116;2023-03-18T20:17:25;97548.53;;;16.02;40.52
13553;BME280;6847;48.830;9.116;2023-03-18T20:20:13;97547.41;;;15.95;40.52
13553;BME280;6847;48.830;9.116;2023-03-18T20:23:02;97539.69;;;15.79;40.73
13553;BME280;6847;48.830;9.116;2023-03-18T20:25:49;97540.47;;;15.80;40.88
13553;BME280;6847;48.830;9.116;2023-03-18T20:28:36;97545.78;;;15.76;40.92
13553;BME280;6847;48.830;9.116;2023-03-18T20:31:28;97551.88;;;15.73;40.79
13553;BME280;6847;48.830;9.116;2023-03-18T20:34:19;97555.25;;;15.70;40.96
13553;BME280;6847;48.830;9.116;2023-03-18T20:37:18;97551.88;;;15.73;40.84
13553;BME280;6847;48.830;9.116;2023-03-18T20:40:16;97521.94;;;15.51;40.98
13553;BME280;6847;48.830;9.116;2023-03-18T20:43:07;97517.78;;;15.45;41.01
13553;BME280;6847;48.830;9.116;2023-03-18T20:45:56;97554.75;;;15.68;41.06
13553;BME280;6847;48.830;9.116;2023-03-18T20:48:49;97553.13;;;15.67;41.01
13553;BME280;6847;48.830;9.116;2023-03-18T20:51:40;97533.31;;;15.44;41.24
13553;BME280;6847;48.830;9.116;2023-03-18T20:54:29;97560.50;;;15.58;41.33
13553;BME280;6847;48.830;9.116;2023-03-18T20:57:19;97570.47;;;15.54;41.44
13553;BME280;6847;48.830;9.116;2023-03-18T21:00:07;97556.09;;;15.40;41.54
13553;BME280;6847;48.830;9.116;2023-03-18T21:02:55;97564.16;;;15.45;41.33
13553;BME280;6847;48.830;9.116;2023-03-18T21:05:40;97571.84;;;15.43;41.55
13553;BME280;6847;48.830;9.116;2023-03-18T21:08:29;97545.97;;;15.32;41.61
13553;BME280;6847;48.830;9.116;2023-03-18T21:11:20;97568.00;;;15.44;41.97
13553;BME280;6847;48.830;9.116;2023-03-18T21:14:15;97568.31;;;15.42;41.91
13553;BME280;6847;48.830;9.116;2023-03-18T21:17:01;97563.47;;;15.39;41.90
13553;BME280;6847;48.830;9.116;2023-03-18T21:19:51;97558.31;;;15.38;41.99
13553;BME280;6847;48.830;9.116;2023-03-18T21:22:41;97541.28;;;15.24;41.95
13553;BME280;6847;48.830;9.116;2023-03-18T21:25:51;97564.22;;;15.23;42.20
13553;BME280;6847;48.830;9.116;2023-03-18T21:28:42;97568.69;;;15.18;42.35
13553;BME280;6847;48.830;9.116;2023-03-18T21:31:36;97543.31;;;15.09;42.35
13553;BME280;6847;48.830;9.116;2023-03-18T21:34:28;97503.41;;;14.74;42.50
13553;BME280;6847;48.830;9.116;2023-03-18T21:37:16;97566.72;;;15.10;42.33
13553;BME280;6847;48.830;9.116;2023-03-18T21:40:02;97533.75;;;14.90;42.72
13553;BME280;6847;48.830;9.116;2023-03-18T21:42:49;97561.13;;;15.07;42.62
13553;BME280;6847;48.830;9.116;2023-03-18T21:45:36;97546.91;;;14.88;42.61
13553;BME280;6847;48.830;9.116;2023-03-18T21:48:24;97406.81;;;13.96;42.55
13553;BME280;6847;48.830;9.116;2023-03-18T21:51:18;97562.81;;;14.94;43.02
13553;BME280;6847;48.830;9.116;2023-03-18T21:54:15;97565.66;;;14.89;42.73
13553;BME280;6847;48.830;9.116;2023-03-18T21:57:01;97568.53;;;14.84;42.91
13553;BME280;6847;48.830;9.116;2023-03-18T21:59:51;97489.84;;;14.29;42.95
13553;BME280;6847;48.830;9.116;2023-03-18T22:02:38;97561.13;;;14.76;43.19
13553;BME280;6847;48.830;9.116;2023-03-18T22:05:23;97521.53;;;14.48;43.42
13553;BME280;6847;48.830;9.116;2023-03-18T22:08:15;97565.56;;;14.72;43.43
13553;BME280;6847;48.830;9.116;2023-03-18T22:11:01;97564.59;;;14.68;43.39
13553;BME280;6847;48.830;9.116;2023-03-18T22:13:50;97558.41;;;14.54;43.33
13553;BME280;6847;48.830;9.116;2023-03-18T22:16:43;97561.44;;;14.52;43.75
13553;BME280;6847;48.830;9.116;2023-03-18T22:19:30;97562.09;;;14.49;43.90
13553;BME280;6847;48.830;9.116;2023-03-18T22:22:20;97565.72;;;14.44;43.94
13553;BME280;6847;48.830;9.116;2023-03-18T22:25:14;97569.97;;;14.37;43.81
13553;BME280;6847;48.830;9.116;2023-03-18T22:28:09;97571.03;;;14.27;44.13
13553;BME280;6847;48.830;9.116;2023-03-18T22:30:59;97505.25;;;13.76;44.00
13553;BME280;6847;48.830;9.116;2023-03-18T22:33:51;97497.84;;;13.67;44.07
13553;BME280;6847;48.830;9.116;2023-03-18T22:36:36;97577.31;;;14.14;43.80
13553;BME280;6847;48.830;9.116;2023-03-18T22:39:23;97580.63;;;14.11;44.44
13553;BME280;6847;48.830;9.116;2023-03-18T22:42:13;97462.28;;;13.28;44.35
13553;BME280;6847;48.830;9.116;2023-03-18T22:44:59;97579.97;;;14.05;44.15
13553;BME280;6847;48.830;9.116;2023-03-18T22:47:46;97578.16;;;14.01;44.21
13553;BME280;6847;48.830;9.116;2023-03-18T22:50:34;97557.47;;;13.78;44.62
13553;BME280;6847;48.830;9.116;2023-03-18T22:53:22;97542.84;;;13.74;44.66
13553;BME280;6847;48.830;9.116;2023-03-18T22:56:10;97587.53;;;13.95;44.43
13553;BME280;6847;48.830;9.116;2023-03-18T22:58:57;97580.00;;;13.92;44.91
13553;BME280;6847;48.830;9.116;2023-03-18T23:01:46;97584.44;;;13.88;44.12
13553;BME280;6847;48.830;9.116;2023-03-18T23:04:35;97585.06;;;13.85;44.25
13553;BME280;6847;48.830;9.116;2023-03-18T23:11:33;97583.28;;;13.66;44.53
13553;BME280;6847;48.830;9.116;2023-03-18T23:14:23;97586.09;;;13.61;44.80
13553;BME280;6847;48.830;9.116;2023-03-18T23:17:13;97581.88;;;13.55;44.82
13553;BME280;6847;48.830;9.116;2023-03-18T23:20:00;97598.41;;;13.45;45.18
13553;BME280;6847;48.830;9.116;2023-03-18T23:22:46;97554.31;;;13.21;45.51
13553;BME280;6847;48.830;9.116;2023-03-18T23:25:32;97549.97;;;13.20;45.69
13553;BME280;6847;48.830;9.116;2023-03-18T23:28:19;97584.91;;;13.40;45.24
13553;BME280;6847;48.830;9.116;2023-03-18T23:31:07;97596.19;;;13.47;45.08
13553;BME280;6847;48.830;9.116;2023-03-18T23:33:53;97587.94;;;13.39;45.73
13553;BME280;6847;48.830;9.116;2023-03-18T23:36:38;97600.00;;;13.46;45.92
13553;BME280;6847;48.830;9.116;2023-03-18T23:39:23;97557.66;;;13.13;45.68
13553;BME280;6847;48.830;9.116;2023-03-18T23:42:12;97577.44;;;13.18;45.29
13553;BME280;6847;48.830;9.116;2023-03-18T23:45:00;97598.09;;;13.33;45.62
13553;BME280;6847;48.830;9.116;2023-03-18T23:47:47;97602.03;;;13.27;45.90
13553;BME280;6847;48.830;9.116;2023-03-18T23:50:35;97596.19;;;13.20;45.79
13553;BME280;6847;48.830;9.116;2023-03-18T23:53:21;97572.59;;;13.02;45.87
13553;BME280;6847;48.830;9.116;2023-03-18T23:56:07;97597.88;;;13.16;46.33
13553;BME280;6847;48.830;9.116;2023-03-18T23:58:54;97575.38;;;12.96;46.62
